sensor_id;sensor_type;location;lat;lon;timestamp;temperature;humidity
19888;DHT22;10106;51.332;12.336;2023-04-01T00:00:17;9.20;99.90
19888;DHT22;10106;51.332;12.336;2023-04-01T00:02:43;9.20;99.90
19888;DHT22;10106;51.332;12.336;2023-04-01T00:05:09;9.20;99.90
19888;DHT22;10106;51.332;12.336;2023-04-01T00:07:38;9.10;99.90
19888;DHT22;10106;51.332;12.336;2023-04-01T00:10:06;9.20;99.90
19888;DHT22;10106;51.332;12.336;2023-04-01T00:12:36;9.20;99.90
19888;DHT22;10106;51.332;12.336;2023-04-01T00:15:03;9.20;99.90
19888;DHT22;10106;51.332;12.336;2023-04-01T00:17:28;9.20;99.90
19888;DHT22;10106;51.332;12.336;2023-04-01T00:19:55;9.20;99.90
19888;DHT22;10106;51.332;12.336;2023-04-01T00:22:21;9.20;99.90
19888;DHT22;10106;51.332;12.336;2023-04-01T00:24:47;9.20;99.90
19888;DHT22;10106;51.332;12.336;2023-04-01T00:27:13;9.20;99.90
19888;DHT22;10106;51.332;12.336;2023-04-01T00:29:42;9.20;99.90
19888;DHT22;10106;51.332;12.336;2023-04-01T00:32:08;9.20;99.90
19888;DHT22;10106;51.332;12.336;2023-04-01T00:34:34;9.20;99.90
19888;DHT22;10106;51.332;12.336;2023-04-01T00:36:59;9.20;99.90
19888;DHT22;10106;51.332;12.336;2023-04-01T00:39:28;9.20;99.90
19888;DHT22;10106;51.332;12.336;2023-04-01T00:41:54;9.20;99.90
19888;DHT22;10106;51.332;12.336;2023-04-01T00:44:25;9.10;99.90
19888;DHT22;10106;51.332;12.336;2023-04-01T00:46:51;9.10;99.90
19888;DHT22;10106;51.332;12.336;2023-04-01T00:49:19;9.10;99.90
19888;DHT22;10106;51.332;12.336;2023-04-01T00:51:47;9.10;99.90
19888;DHT22;10106;51.332;12.336;2023-04-01T00:54:14;9.10;99.90
19888;DHT22;10106;51.332;12.336;2023-04-01T00:56:59;9.10;99.90
19888;DHT22;10106;51.332;12.336;2023-04-01T00:59:39;9.10;99.90
19888;DHT22;10106;51.332;12.336;2023-04-01T01:02:09;9.10;99.90
19888;DHT22;10106;51.332;12.336;2023-04-01T01:04:35;9.10;99.90
19888;DHT22;10106;51.332;12.336;2023-04-01T01:12:28;9.10;99.90
19888;DHT22;10106;51.332;12.336;2023-04-01T01:15:11;9.00;99.90
19888;DHT22;10106;51.332;12.336;2023-04-01T01:20:56;9.00;99.90
19888;DHT22;10106;51.332;12.336;2023-04-01T01:26:46;9.00;99.90
19888;DHT22;10106;51.332;12.336;2023-04-01T01:29:27;9.00;99.90
19888;DHT22;10106;51.332;12.336;2023-04-01T01:37:38;9.10;99.90
19888;DHT22;10106;51.332;12.336;2023-04-01T01:40:07;9.10;99.90
19888;DHT22;10106;51.332;12.336;2023-04-01T01:42:36;9.10;99.90
19888;DHT22;10106;51.332;12.336;2023-04-01T01:45:04;9.10;99.90
19888;DHT22;10106;51.332;12.336;2023-04-01T01:47:31;9.20;99.90
19888;DHT22;10106;51.332;12.336;2023-04-01T01:49:58;9.20;99.90
19888;DHT22;10106;51.332;12.336;2023-04-01T01:52:27;9.20;99.90
19888;DHT22;10106;51.332;12.336;2023-04-01T01:54:57;9.30;99.90
19888;DHT22;10106;51.332;12.336;2023-04-01T01:57:28;9.30;99.90
19888;DHT22;10106;51.332;12.336;2023-04-01T02:00:00;9.30;99.90
19888;DHT22;10106;51.332;12.336;2023-04-01T02:02:27;9.30;99.90
19888;DHT22;10106;51.332;12.336;2023-04-01T02:04:57;9.30;99.90
19888;DHT22;10106;51.332;12.336;2023-04-01T02:07:31;9.30;99.90
19888;DHT22;10106;51.332;12.336;2023-04-01T02:09:58;9.30;99.90
19888;DHT22;10106;51.332;12.336;2023-04-01T02:12:24;9.30;99.90
19888;DHT22;10106;51.332;12.336;2023-04-01T02:14:57;9.30;99.90
19888;DHT22;10106;51.332;12.336;2023-04-01T02:17:29;9.30;99.90
19888;DHT22;10106;51.332;12.336;2023-04-01T02:20:06;9.30;99.90
19888;DHT22;10106;51.332;12.336;2023-04-01T02:22:38;9.30;99.90
19888;DHT22;10106;51.332;12.336;2023-04-01T02:25:13;9.30;99.90
19888;DHT22;10106;51.332;12.336;2023-04-01T02:27:40;9.30;99.90
19888;DHT22;10106;51.332;12.336;2023-04-01T02:30:08;9.30;99.90
19888;DHT22;10106;51.332;12.336;2023-04-01T02:32:35;9.30;99.90
19888;DHT22;10106;51.332;12.336;2023-04-01T02:35:05;9.30;99.90
19888;DHT22;10106;51.332;12.336;2023-04-01T02:37:32;9.30;99.90
19888;DHT22;10106;51.332;12.336;2023-04-01T02:40:04;9.30;99.90
19888;DHT22;10106;51.332;12.336;2023-04-01T02:42:32;9.30;99.90
19888;DHT22;10106;51.332;12.336;2023-04-01T02:44:57;9.30;99.90
19888;DHT22;10106;51.332;12.336;2023-04-01T02:47:23;9.30;99.90
19888;DHT22;10106;51.332;12.336;2023-04-01T02:49:49;9.30;99.90
19888;DHT22;10106;51.332;12.336;2023-04-01T02:52:14;9.30;99.90
19888;DHT22;10106;51.332;12.336;2023-04-01T02:54:40;9.30;99.90
19888;DHT22;10106;51.332;12.336;2023-04-01T02:57:06;9.30;99.90
19888;DHT22;10106;51.332;12.336;2023-04-01T02:59:32;9.30;99.90
19888;DHT22;10106;51.332;12.336;2023-04-01T03:01:57;9.30;99.90
19888;DHT22;10106;51.332;12.336;2023-04-01T03:04:23;9.30;99.90
19888;DHT22;10106;51.332;12.336;2023-04-01T03:06:49;9.30;99.90
19888;DHT22;10106;51.332;12.336;2023-04-01T03:09:15;9.30;99.90
19888;DHT22;10106;51.332;12.336;2023-04-01T03:11:41;9.30;99.90
19888;DHT22;10106;51.332;12.336;2023-04-01T03:14:07;9.30;99.90
19888;DHT22;10106;51.332;12.336;2023-04-01T03:16:32;9.30;99.90
19888;DHT22;10106;51.332;12.336;2023-04-01T03:18:58;9.30;99.90
19888;DHT22;10106;51.332;12.336;2023-04-01T03:21:25;9.40;99.90
19888;DHT22;10106;51.332;12.336;2023-04-01T03:23:51;9.30;99.90
19888;DHT22;10106;51.332;12.336;2023-04-01T03:26:17;9.30;99.90
19888;DHT22;10106;51.332;12.336;2023-04-01T03:28:44;9.30;99.90
19888;DHT22;10106;51.332;12.336;2023-04-01T03:31:10;9.30;99.90
19888;DHT22;10106;51.332;12.336;2023-04-01T03:33:36;9.30;99.90
19888;DHT22;10106;51.332;12.336;2023-04-01T03:36:02;9.30;99.90
19888;DHT22;10106;51.332;12.336;2023-04-01T03:38:34;9.30;99.90
19888;DHT22;10106;51.332;12.336;2023-04-01T03:41:00;9.30;99.90
19888;DHT22;10106;51.332;12.336;2023-04-01T03:43:26;9.30;99.90
19888;DHT22;10106;51.332;12.336;2023-04-01T03:45:52;9.20;99.90
19888;DHT22;10106;51.332;12.336;2023-04-01T03:48:19;9.20;99.90
19888;DHT22;10106;51.332;12.336;2023-04-01T03:50:46;9.20;99.90
19888;DHT22;10106;51.332;12.336;2023-04-01T03:53:12;9.20;99.90
19888;DHT22;10106;51.332;12.336;2023-04-01T03:55:39;9.20;99.90
19888;DHT22;10106;51.332;12.336;2023-04-01T03:58:05;9.20;99.90
19888;DHT22;10106;51.332;12.336;2023-04-01T04:00:31;9.20;99.90
19888;DHT22;10106;51.332;12.336;2023-04-01T04:02:57;9.20;99.90
19888;DHT22;10106;51.332;12.336;2023-04-01T04:05:24;9.20;99.90
19888;DHT22;10106;51.332;12.336;2023-04-01T04:07:50;9.20;99.90
19888;DHT22;10106;51.332;12.336;2023-04-01T04:10:16;9.20;99.90
19888;DHT22;10106;51.332;12.336;2023-04-01T04:12:42;9.20;99.90
19888;DHT22;10106;51.332;12.336;2023-04-01T04:15:08;9.20;99.90
19888;DHT22;10106;51.332;12.336;2023-04-01T04:17:34;9.20;99.90
19888;DHT22;10106;51.332;12.336;2023-04-01T04:19:59;9.20;99.90
19888;DHT22;10106;51.332;12.336;2023-04-01T04:22:25;9.10;99.90
19888;DHT22;10106;51.332;12.336;2023-04-01T04:24:51;9.10;99.90
19888;DHT22;10106;51.332;12.336;2023-04-01T04:27:16;9.20;99.90
19888;DHT22;10106;51.332;12.336;2023-04-01T04:29:42;9.10;99.90
19888;DHT22;10106;51.332;12.336;2023-04-01T04:32:08;9.10;99.90
19888;DHT22;10106;51.332;12.336;2023-04-01T04:34:34;9.10;99.90
19888;DHT22;10106;51.332;12.336;2023-04-01T04:37:00;9.10;99.90
19888;DHT22;10106;51.332;12.336;2023-04-01T04:39:25;9.10;99.90
19888;DHT22;10106;51.332;12.336;2023-04-01T04:41:51;9.10;99.90
19888;DHT22;10106;51.332;12.336;2023-04-01T04:44:17;9.00;99.90
19888;DHT22;10106;51.332;12.336;2023-04-01T04:46:43;9.00;99.90
19888;DHT22;10106;51.332;12.336;2023-04-01T04:49:08;9.00;99.90
19888;DHT22;10106;51.332;12.336;2023-04-01T04:51:34;9.00;99.90
19888;DHT22;10106;51.332;12.336;2023-04-01T04:54:02;9.00;99.90
19888;DHT22;10106;51.332;12.336;2023-04-01T04:56:28;8.90;99.90
19888;DHT22;10106;51.332;12.336;2023-04-01T04:58:53;8.90;99.90
19888;DHT22;10106;51.332;12.336;2023-04-01T05:06:30;8.90;99.90
19888;DHT22;10106;51.332;12.336;2023-04-01T05:08:56;8.90;99.90
19888;DHT22;10106;51.332;12.336;2023-04-01T05:11:23;9.00;99.90
19888;DHT22;10106;51.332;12.336;2023-04-01T05:13:49;9.00;99.90
19888;DHT22;10106;51.332;12.336;2023-04-01T05:16:17;9.00;99.90
19888;DHT22;10106;51.332;12.336;2023-04-01T05:18:44;9.00;99.90
19888;DHT22;10106;51.332;12.336;2023-04-01T05:21:11;9.00;99.90
19888;DHT22;10106;51.332;12.336;2023-04-01T05:23:37;9.00;99.90
19888;DHT22;10106;51.332;12.336;2023-04-01T05:26:14;9.10;99.90
19888;DHT22;10106;51.332;12.336;2023-04-01T05:28:40;9.10;99.90
19888;DHT22;10106;51.332;12.336;2023-04-01T05:31:07;9.20;99.90
19888;DHT22;10106;51.332;12.336;2023-04-01T05:33:33;9.30;99.90
19888;DHT22;10106;51.332;12.336;2023-04-01T05:36:13;9.40;99.90
19888;DHT22;10106;51.332;12.336;2023-04-01T05:38:39;9.50;99.90
19888;DHT22;10106;51.332;12.336;2023-04-01T05:41:05;9.50;99.90
19888;DHT22;10106;51.332;12.336;2023-04-01T05:43:31;9.50;99.90
19888;DHT22;10106;51.332;12.336;2023-04-01T05:46:00;9.50;99.90
19888;DHT22;10106;51.332;12.336;2023-04-01T05:48:25;9.50;99.90
19888;DHT22;10106;51.332;12.336;2023-04-01T05:50:51;9.50;99.90
19888;DHT22;10106;51.332;12.336;2023-04-01T05:53:17;9.50;99.90
19888;DHT22;10106;51.332;12.336;2023-04-01T05:55:43;9.50;99.90
19888;DHT22;10106;51.332;12.336;2023-04-01T05:58:08;9.50;99.90
19888;DHT22;10106;51.332;12.336;2023-04-01T06:00:34;9.50;99.90
19888;DHT22;10106;51.332;12.336;2023-04-01T06:03:00;9.50;99.90
19888;DHT22;10106;51.332;12.336;2023-04-01T06:05:30;9.60;99.90
19888;DHT22;10106;51.332;12.336;2023-04-01T06:08:00;9.60;99.90
19888;DHT22;10106;51.332;12.336;2023-04-01T06:13:53;9.70;99.90
19888;DHT22;10106;51.332;12.336;2023-04-01T06:16:28;9.80;99.90
19888;DHT22;10106;51.332;12.336;2023-04-01T06:27:04;10.20;99.90
19888;DHT22;10106;51.332;12.336;2023-04-01T06:32:20;10.30;99.90
19888;DHT22;10106;51.332;12.336;2023-04-01T06:48:35;10.60;99.90
19888;DHT22;10106;51.332;12.336;2023-04-01T06:56:41;11.40;99.90
19888;DHT22;10106;51.332;12.336;2023-04-01T06:59:21;11.30;99.90
19888;DHT22;10106;51.332;12.336;2023-04-01T07:01:51;11.30;99.90
19888;DHT22;10106;51.332;12.336;2023-04-01T07:04:51;11.30;99.90
19888;DHT22;10106;51.332;12.336;2023-04-01T07:07:31;11.20;99.90
19888;DHT22;10106;51.332;12.336;2023-04-01T07:09:59;11.30;99.90
19888;DHT22;10106;51.332;12.336;2023-04-01T07:12:39;11.30;99.90
19888;DHT22;10106;51.332;12.336;2023-04-01T07:15:17;11.40;99.90
19888;DHT22;10106;51.332;12.336;2023-04-01T07:17:45;11.50;99.90
19888;DHT22;10106;51.332;12.336;2023-04-01T07:20:30;11.60;99.90
19888;DHT22;10106;51.332;12.336;2023-04-01T07:22:59;11.70;99.90
19888;DHT22;10106;51.332;12.336;2023-04-01T07:25:44;11.70;99.90
19888;DHT22;10106;51.332;12.336;2023-04-01T07:28:14;11.70;99.90
19888;DHT22;10106;51.332;12.336;2023-04-01T07:37:16;11.50;99.90
19888;DHT22;10106;51.332;12.336;2023-04-01T07:42:46;11.60;99.90
19888;DHT22;10106;51.332;12.336;2023-04-01T07:48:00;12.10;99.90
19888;DHT22;10106;51.332;12.336;2023-04-01T07:55:52;12.70;99.90
19888;DHT22;10106;51.332;12.336;2023-04-01T08:01:04;12.60;99.90
19888;DHT22;10106;51.332;12.336;2023-04-01T08:15:18;11.90;99.90
19888;DHT22;10106;51.332;12.336;2023-04-01T08:20:28;12.00;99.90
19888;DHT22;10106;51.332;12.336;2023-04-01T08:23:03;12.30;99.90
19888;DHT22;10106;51.332;12.336;2023-04-01T08:25:32;12.50;99.90
19888;DHT22;10106;51.332;12.336;2023-04-01T08:30:45;12.70;99.90
19888;DHT22;10106;51.332;12.336;2023-04-01T08:33:34;12.80;99.90
19888;DHT22;10106;51.332;12.336;2023-04-01T08:36:20;12.90;99.90
19888;DHT22;10106;51.332;12.336;2023-04-01T08:38:57;13.10;99.90
19888;DHT22;10106;51.332;12.336;2023-04-01T08:45:04;13.20;99.90
19888;DHT22;10106;51.332;12.336;2023-04-01T08:47:19;13.10;99.90
19888;DHT22;10106;51.332;12.336;2023-04-01T08:50:01;13.20;99.90
19888;DHT22;10106;51.332;12.336;2023-04-01T08:52:35;13.20;99.90
19888;DHT22;10106;51.332;12.336;2023-04-01T09:01:05;13.60;99.90
19888;DHT22;10106;51.332;12.336;2023-04-01T09:07:35;13.50;99.90
19888;DHT22;10106;51.332;12.336;2023-04-01T09:12:43;13.50;99.90
19888;DHT22;10106;51.332;12.336;2023-04-01T09:23:28;13.40;99.90
19888;DHT22;10106;51.332;12.336;2023-04-01T09:29:45;13.50;99.90
19888;DHT22;10106;51.332;12.336;2023-04-01T09:35:21;13.50;99.90
19888;DHT22;10106;51.332;12.336;2023-04-01T09:38:01;13.40;99.90
19888;DHT22;10106;51.332;12.336;2023-04-01T09:40:55;13.30;99.90
19888;DHT22;10106;51.332;12.336;2023-04-01T09:43:26;13.20;99.90
19888;DHT22;10106;51.332;12.336;2023-04-01T09:51:52;13.40;99.90
19888;DHT22;10106;51.332;12.336;2023-04-01T10:06:22;13.40;99.90
19888;DHT22;10106;51.332;12.336;2023-04-01T10:12:25;13.20;99.90
19888;DHT22;10106;51.332;12.336;2023-04-01T10:23:20;13.00;99.90
19888;DHT22;10106;51.332;12.336;2023-04-01T10:33:56;13.30;99.90
19888;DHT22;10106;51.332;12.336;2023-04-01T10:42:41;13.30;99.90
19888;DHT22;10106;51.332;12.336;2023-04-01T10:48:45;13.10;99.90
19888;DHT22;10106;51.332;12.336;2023-04-01T10:51:20;13.00;99.90
19888;DHT22;10106;51.332;12.336;2023-04-01T10:56:39;13.10;99.90
19888;DHT22;10106;51.332;12.336;2023-04-01T10:59:40;13.20;99.90
19888;DHT22;10106;51.332;12.336;2023-04-01T11:08:13;13.80;99.90
19888;DHT22;10106;51.332;12.336;2023-04-01T11:30:40;14.10;99.90
19888;DHT22;10106;51.332;12.336;2023-04-01T11:36:11;14.70;99.90
19888;DHT22;10106;51.332;12.336;2023-04-01T11:39:14;15.10;99.90
19888;DHT22;10106;51.332;12.336;2023-04-01T11:44:29;15.50;99.90
19888;DHT22;10106;51.332;12.336;2023-04-01T11:50:03;15.30;99.90
19888;DHT22;10106;51.332;12.336;2023-04-01T11:58:30;14.30;99.90
19888;DHT22;10106;51.332;12.336;2023-04-01T12:18:37;13.40;99.90
19888;DHT22;10106;51.332;12.336;2023-04-01T12:21:25;13.30;99.90
19888;DHT22;10106;51.332;12.336;2023-04-01T12:35:02;12.60;99.90
19888;DHT22;10106;51.332;12.336;2023-04-01T12:51:35;13.10;99.90
19888;DHT22;10106;51.332;12.336;2023-04-01T13:17:52;13.20;99.90
19888;DHT22;10106;51.332;12.336;2023-04-01T13:20:58;13.40;99.90
19888;DHT22;10106;51.332;12.336;2023-04-01T13:29:36;13.40;99.90
19888;DHT22;10106;51.332;12.336;2023-04-01T13:40:36;13.30;99.90
19888;DHT22;10106;51.332;12.336;2023-04-01T13:43:22;13.20;99.90
19888;DHT22;10106;51.332;12.336;2023-04-01T13:51:37;13.10;99.90
19888;DHT22;10106;51.332;12.336;2023-04-01T13:54:32;13.10;99.90
19888;DHT22;10106;51.332;12.336;2023-04-01T13:57:21;13.00;99.90
19888;DHT22;10106;51.332;12.336;2023-04-01T13:59:55;13.00;99.90
19888;DHT22;10106;51.332;12.336;2023-04-01T14:02:42;13.00;99.90
19888;DHT22;10106;51.332;12.336;2023-04-01T14:08:29;12.90;99.90
19888;DHT22;10106;51.332;12.336;2023-04-01T14:21:55;12.80;99.90
19888;DHT22;10106;51.332;12.336;2023-04-01T14:36:43;12.40;99.90
19888;DHT22;10106;51.332;12.336;2023-04-01T14:42:15;12.50;99.90
19888;DHT22;10106;51.332;12.336;2023-04-01T14:45:06;12.50;99.90
19888;DHT22;10106;51.332;12.336;2023-04-01T14:47:54;12.40;99.90
19888;DHT22;10106;51.332;12.336;2023-04-01T14:50:24;12.40;99.90
19888;DHT22;10106;51.332;12.336;2023-04-01T14:55:49;12.40;99.90
19888;DHT22;10106;51.332;12.336;2023-04-01T14:58:17;12.40;99.90
19888;DHT22;10106;51.332;12.336;2023-04-01T15:12:37;12.60;99.90
19888;DHT22;10106;51.332;12.336;2023-04-01T15:17:55;12.50;99.90
19888;DHT22;10106;51.332;12.336;2023-04-01T15:26:08;12.50;99.90
19888;DHT22;10106;51.332;12.336;2023-04-01T15:31:22;12.20;99.90
19888;DHT22;10106;51.332;12.336;2023-04-01T15:42:16;11.90;99.90
19888;DHT22;10106;51.332;12.336;2023-04-01T15:45:07;11.80;99.90
19888;DHT22;10106;51.332;12.336;2023-04-01T15:47:40;11.80;99.90
19888;DHT22;10106;51.332;12.336;2023-04-01T15:50:28;11.70;99.90
19888;DHT22;10106;51.332;12.336;2023-04-01T15:59:00;11.50;99.90
19888;DHT22;10106;51.332;12.336;2023-04-01T16:01:54;11.50;99.90
19888;DHT22;10106;51.332;12.336;2023-04-01T16:07:16;11.50;99.90
19888;DHT22;10106;51.332;12.336;2023-04-01T16:18:26;11.30;99.90
19888;DHT22;10106;51.332;12.336;2023-04-01T16:23:55;11.30;99.90
19888;DHT22;10106;51.332;12.336;2023-04-01T16:26:28;11.30;99.90
19888;DHT22;10106;51.332;12.336;2023-04-01T16:31:57;11.20;99.90
19888;DHT22;10106;51.332;12.336;2023-04-01T16:34:54;11.20;99.90
19888;DHT22;10106;51.332;12.336;2023-04-01T16:37:36;11.10;99.90
19888;DHT22;10106;51.332;12.336;2023-04-01T16:51:22;10.90;99.90
19888;DHT22;10106;51.332;12.336;2023-04-01T16:54:17;10.90;99.90
19888;DHT22;10106;51.332;12.336;2023-04-01T16:56:56;10.90;99.90
19888;DHT22;10106;51.332;12.336;2023-04-01T16:59:35;10.90;99.90
19888;DHT22;10106;51.332;12.336;2023-04-01T17:04:49;10.90;99.90
19888;DHT22;10106;51.332;12.336;2023-04-01T17:07:38;10.80;99.90
19888;DHT22;10106;51.332;12.336;2023-04-01T17:15:35;10.80;99.90
19888;DHT22;10106;51.332;12.336;2023-04-01T17:26:13;10.70;99.90
19888;DHT22;10106;51.332;12.336;2023-04-01T17:34:28;10.50;99.90
19888;DHT22;10106;51.332;12.336;2023-04-01T17:42:20;10.50;99.90
19888;DHT22;10106;51.332;12.336;2023-04-01T17:45:10;10.50;99.90
19888;DHT22;10106;51.332;12.336;2023-04-01T17:47:49;10.50;99.90
19888;DHT22;10106;51.332;12.336;2023-04-01T17:53:09;10.40;99.90
19888;DHT22;10106;51.332;12.336;2023-04-01T17:58:32;10.30;99.90
19888;DHT22;10106;51.332;12.336;2023-04-01T18:03:54;10.20;99.90
19888;DHT22;10106;51.332;12.336;2023-04-01T18:09:13;10.10;99.90
19888;DHT22;10106;51.332;12.336;2023-04-01T18:22:21;10.00;99.90
19888;DHT22;10106;51.332;12.336;2023-04-01T18:27:40;9.90;99.90
19888;DHT22;10106;51.332;12.336;2023-04-01T18:32:58;9.80;99.90
19888;DHT22;10106;51.332;12.336;2023-04-01T18:38:16;9.70;99.90
19888;DHT22;10106;51.332;12.336;2023-04-01T18:43:52;9.70;99.90
19888;DHT22;10106;51.332;12.336;2023-04-01T18:49:30;9.70;99.90
19888;DHT22;10106;51.332;12.336;2023-04-01T18:57:52;9.70;99.90
19888;DHT22;10106;51.332;12.336;2023-04-01T19:00:32;9.70;99.90
19888;DHT22;10106;51.332;12.336;2023-04-01T19:03:21;9.70;99.90
19888;DHT22;10106;51.332;12.336;2023-04-01T19:05:51;9.60;99.90
19888;DHT22;10106;51.332;12.336;2023-04-01T19:08:39;9.60;99.90
19888;DHT22;10106;51.332;12.336;2023-04-01T19:11:33;9.60;99.90
19888;DHT22;10106;51.332;12.336;2023-04-01T19:19:54;9.60;99.90
19888;DHT22;10106;51.332;12.336;2023-04-01T19:25:00;9.60;99.90
19888;DHT22;10106;51.332;12.336;2023-04-01T19:27:37;9.60;99.90
19888;DHT22;10106;51.332;12.336;2023-04-01T19:30:09;9.60;99.90
19888;DHT22;10106;51.332;12.336;2023-04-01T19:32:51;9.50;99.90
19888;DHT22;10106;51.332;12.336;2023-04-01T19:49:14;9.10;99.90
19888;DHT22;10106;51.332;12.336;2023-04-01T19:52:05;9.00;99.90
19888;DHT22;10106;51.332;12.336;2023-04-01T20:00:31;8.80;99.90
19888;DHT22;10106;51.332;12.336;2023-04-01T20:03:34;8.80;99.90
19888;DHT22;10106;51.332;12.336;2023-04-01T20:06:11;8.70;99.90
19888;DHT22;10106;51.332;12.336;2023-04-01T20:14:40;8.60;99.90
19888;DHT22;10106;51.332;12.336;2023-04-01T20:17:21;8.50;99.90
19888;DHT22;10106;51.332;12.336;2023-04-01T20:20:24;8.40;99.90
19888;DHT22;10106;51.332;12.336;2023-04-01T20:23:42;8.40;99.90
19888;DHT22;10106;51.332;12.336;2023-04-01T20:26:12;8.40;99.90
19888;DHT22;10106;51.332;12.336;2023-04-01T20:29:16;8.40;99.90
19888;DHT22;10106;51.332;12.336;2023-04-01T20:31:40;8.30;99.90
19888;DHT22;10106;51.332;12.336;2023-04-01T20:45:18;8.10;99.90
19888;DHT22;10106;51.332;12.336;2023-04-01T21:03:01;7.70;99.90
19888;DHT22;10106;51.332;12.336;2023-04-01T21:11:08;7.50;99.90
19888;DHT22;10106;51.332;12.336;2023-04-01T21:13:55;7.50;99.90
19888;DHT22;10106;51.332;12.336;2023-04-01T21:25:17;7.30;99.90
19888;DHT22;10106;51.332;12.336;2023-04-01T21:28:09;7.20;99.90
19888;DHT22;10106;51.332;12.336;2023-04-01T21:31:14;7.10;99.90
19888;DHT22;10106;51.332;12.336;2023-04-01T21:34:07;7.00;99.90
19888;DHT22;10106;51.332;12.336;2023-04-01T21:42:39;7.00;99.90
19888;DHT22;10106;51.332;12.336;2023-04-01T21:46:03;6.90;99.90
19888;DHT22;10106;51.332;12.336;2023-04-01T21:48:27;6.90;99.90
19888;DHT22;10106;51.332;12.336;2023-04-01T21:51:21;6.90;99.90
19888;DHT22;10106;51.332;12.336;2023-04-01T22:13:14;6.30;99.90
19888;DHT22;10106;51.332;12.336;2023-04-01T22:18:29;6.10;99.90
19888;DHT22;10106;51.332;12.336;2023-04-01T22:21:15;6.10;99.90
19888;DHT22;10106;51.332;12.336;2023-04-01T22:24:11;6.00;99.90
19888;DHT22;10106;51.332;12.336;2023-04-01T22:29:17;5.80;99.90
19888;DHT22;10106;51.332;12.336;2023-04-01T22:31:59;5.80;99.90
19888;DHT22;10106;51.332;12.336;2023-04-01T22:34:47;5.80;99.90
19888;DHT22;10106;51.332;12.336;2023-04-01T22:43:08;5.60;99.90
19888;DHT22;10106;51.332;12.336;2023-04-01T22:48:49;5.60;99.90
19888;DHT22;10106;51.332;12.336;2023-04-01T22:54:19;5.50;99.90
19888;DHT22;10106;51.332;12.336;2023-04-01T22:59:39;5.50;99.90
19888;DHT22;10106;51.332;12.336;2023-04-01T23:02:23;5.40;99.90
19888;DHT22;10106;51.332;12.336;2023-04-01T23:05:00;5.40;99.90
19888;DHT22;10106;51.332;12.336;2023-04-01T23:13:20;5.30;99.90
19888;DHT22;10106;51.332;12.336;2023-04-01T23:15:47;5.20;99.90
19888;DHT22;10106;51.332;12.336;2023-04-01T23:28:54;5.10;99.90
19888;DHT22;10106;51.332;12.336;2023-04-01T23:36:44;5.00;99.90
19888;DHT22;10106;51.332;12.336;2023-04-01T23:39:29;4.90;99.90
19888;DHT22;10106;51.332;12.336;2023-04-01T23:42:12;4.90;99.90
19888;DHT22;10106;51.332;12.336;2023-04-01T23:44:39;4.80;99.90
19888;DHT22;10106;51.332;12.336;2023-04-01T23:47:06;4.80;99.90
19888;DHT22;10106;51.332;12.336;2023-04-01T23:49:40;4.70;99.90
19888;DHT22;10106;51.332;12.336;2023-04-01T23:52:21;4.70;99.90
19888;DHT22;10106;51.332;12.336;2023-04-01T23:54:52;4.70;99.90
19888;DHT22;10106;51.332;12.336;2023-04-01T23:57:23;4.60;99.90
